sensor_id;sensor_type;location;lat;lon;timestamp;P1;durP1;ratioP1;P2;durP2;ratioP2
15490;SDS011;7847;50.930;4.336;2022-07-29T00:01:22;0.10;;;0.10;;
15490;SDS011;7847;50.930;4.336;2022-07-29T00:03:48;0.10;;;0.10;;
15490;SDS011;7847;50.930;4.336;2022-07-29T00:06:14;0.10;;;0.10;;
15490;SDS011;7847;50.930;4.336;2022-07-29T00:08:40;0.10;;;0.10;;
15490;SDS011;7847;50.930;4.336;2022-07-29T00:11:06;0.10;;;0.10;;
15490;SDS011;7847;50.930;4.336;2022-07-29T00:13:33;0.10;;;0.10;;
15490;SDS011;7847;50.930;4.336;2022-07-29T00:15:59;0.10;;;0.10;;
15490;SDS011;7847;50.930;4.336;2022-07-29T00:18:25;0.10;;;0.10;;
15490;SDS011;7847;50.930;4.336;2022-07-29T00:20:51;0.10;;;0.10;;
15490;SDS011;7847;50.930;4.336;2022-07-29T00:23:17;0.10;;;0.10;;
15490;SDS011;7847;50.930;4.336;2022-07-29T00:25:43;0.10;;;0.10;;
15490;SDS011;7847;50.930;4.336;2022-07-29T00:28:09;0.10;;;0.10;;
15490;SDS011;7847;50.930;4.336;2022-07-29T00:30:35;0.10;;;0.10;;
15490;SDS011;7847;50.930;4.336;2022-07-29T00:33:01;0.10;;;0.10;;
15490;SDS011;7847;50.930;4.336;2022-07-29T00:35:27;0.10;;;0.10;;
15490;SDS011;7847;50.930;4.336;2022-07-29T00:38:09;0.10;;;0.10;;
15490;SDS011;7847;50.930;4.336;2022-07-29T00:40:35;0.10;;;0.10;;
15490;SDS011;7847;50.930;4.336;2022-07-29T00:43:01;0.20;;;0.20;;
15490;SDS011;7847;50.930;4.336;2022-07-29T00:45:27;0.10;;;0.10;;
15490;SDS011;7847;50.930;4.336;2022-07-29T00:47:54;0.10;;;0.10;;
15490;SDS011;7847;50.930;4.336;2022-07-29T00:50:20;0.10;;;0.10;;
15490;SDS011;7847;50.930;4.336;2022-07-29T00:52:46;0.10;;;0.10;;
15490;SDS011;7847;50.930;4.336;2022-07-29T00:55:14;0.10;;;0.10;;
15490;SDS011;7847;50.930;4.336;2022-07-29T00:57:41;0.10;;;0.10;;
15490;SDS011;7847;50.930;4.336;2022-07-29T01:00:08;0.10;;;0.10;;
15490;SDS011;7847;50.930;4.336;2022-07-29T01:02:35;0.10;;;0.10;;
15490;SDS011;7847;50.930;4.336;2022-07-29T01:05:02;0.15;;;0.15;;
15490;SDS011;7847;50.930;4.336;2022-07-29T01:07:28;0.10;;;0.10;;
15490;SDS011;7847;50.930;4.336;2022-07-29T01:09:55;0.20;;;0.20;;
15490;SDS011;7847;50.930;4.336;2022-07-29T01:12:25;0.10;;;0.10;;
15490;SDS011;7847;50.930;4.336;2022-07-29T01:14:52;0.10;;;0.10;;
15490;SDS011;7847;50.930;4.336;2022-07-29T01:30:10;0.10;;;0.10;;
15490;SDS011;7847;50.930;4.336;2022-07-29T01:32:37;0.10;;;0.10;;
15490;SDS011;7847;50.930;4.336;2022-07-29T01:35:21;0.20;;;0.20;;
15490;SDS011;7847;50.930;4.336;2022-07-29T01:37:55;0.10;;;0.10;;
15490;SDS011;7847;50.930;4.336;2022-07-29T01:40:27;0.10;;;0.10;;
15490;SDS011;7847;50.930;4.336;2022-07-29T01:42:55;0.08;;;0.08;;
15490;SDS011;7847;50.930;4.336;2022-07-29T01:47:59;0.10;;;0.10;;
15490;SDS011;7847;50.930;4.336;2022-07-29T01:53:10;0.10;;;0.10;;
15490;SDS011;7847;50.930;4.336;2022-07-29T01:55:38;0.13;;;0.13;;
15490;SDS011;7847;50.930;4.336;2022-07-29T01:58:06;0.10;;;0.10;;
15490;SDS011;7847;50.930;4.336;2022-07-29T02:00:33;0.10;;;0.10;;
15490;SDS011;7847;50.930;4.336;2022-07-29T02:03:04;0.10;;;0.10;;
15490;SDS011;7847;50.930;4.336;2022-07-29T02:05:31;0.20;;;0.20;;
15490;SDS011;7847;50.930;4.336;2022-07-29T02:07:58;0.10;;;0.10;;
15490;SDS011;7847;50.930;4.336;2022-07-29T02:10:26;0.10;;;0.10;;
15490;SDS011;7847;50.930;4.336;2022-07-29T02:12:54;0.10;;;0.10;;
15490;SDS011;7847;50.930;4.336;2022-07-29T02:15:20;0.10;;;0.10;;
15490;SDS011;7847;50.930;4.336;2022-07-29T02:17:52;0.10;;;0.10;;
15490;SDS011;7847;50.930;4.336;2022-07-29T02:20:20;0.10;;;0.10;;
15490;SDS011;7847;50.930;4.336;2022-07-29T02:22:47;0.20;;;0.20;;
15490;SDS011;7847;50.930;4.336;2022-07-29T02:25:14;0.10;;;0.10;;
15490;SDS011;7847;50.930;4.336;2022-07-29T02:27:41;0.10;;;0.10;;
15490;SDS011;7847;50.930;4.336;2022-07-29T02:30:08;0.17;;;0.17;;
15490;SDS011;7847;50.930;4.336;2022-07-29T02:32:35;0.20;;;0.20;;
15490;SDS011;7847;50.930;4.336;2022-07-29T02:35:02;0.10;;;0.10;;
15490;SDS011;7847;50.930;4.336;2022-07-29T02:37:29;0.10;;;0.10;;
15490;SDS011;7847;50.930;4.336;2022-07-29T02:39:55;0.10;;;0.10;;
15490;SDS011;7847;50.930;4.336;2022-07-29T02:42:22;0.10;;;0.10;;
15490;SDS011;7847;50.930;4.336;2022-07-29T02:44:50;0.10;;;0.10;;
15490;SDS011;7847;50.930;4.336;2022-07-29T02:47:18;0.17;;;0.17;;
15490;SDS011;7847;50.930;4.336;2022-07-29T02:52:18;0.15;;;0.15;;
15490;SDS011;7847;50.930;4.336;2022-07-29T02:54:53;0.10;;;0.10;;
15490;SDS011;7847;50.930;4.336;2022-07-29T02:57:22;0.20;;;0.20;;
15490;SDS011;7847;50.930;4.336;2022-07-29T02:59:49;0.10;;;0.10;;
15490;SDS011;7847;50.930;4.336;2022-07-29T03:02:17;0.20;;;0.20;;
15490;SDS011;7847;50.930;4.336;2022-07-29T03:04:43;0.10;;;0.10;;
15490;SDS011;7847;50.930;4.336;2022-07-29T03:07:10;0.20;;;0.20;;
15490;SDS011;7847;50.930;4.336;2022-07-29T03:09:37;0.10;;;0.10;;
15490;SDS011;7847;50.930;4.336;2022-07-29T03:12:04;0.10;;;0.10;;
15490;SDS011;7847;50.930;4.336;2022-07-29T03:14:30;0.10;;;0.10;;
15490;SDS011;7847;50.930;4.336;2022-07-29T03:16:57;0.20;;;0.20;;
15490;SDS011;7847;50.930;4.336;2022-07-29T03:19:23;0.15;;;0.15;;
15490;SDS011;7847;50.930;4.336;2022-07-29T03:21:49;0.20;;;0.20;;
15490;SDS011;7847;50.930;4.336;2022-07-29T03:24:25;0.20;;;0.20;;
15490;SDS011;7847;50.930;4.336;2022-07-29T03:26:51;0.10;;;0.10;;
15490;SDS011;7847;50.930;4.336;2022-07-29T03:29:17;0.20;;;0.20;;
15490;SDS011;7847;50.930;4.336;2022-07-29T03:31:43;0.20;;;0.20;;
15490;SDS011;7847;50.930;4.336;2022-07-29T03:34:09;0.20;;;0.20;;
15490;SDS011;7847;50.930;4.336;2022-07-29T03:36:35;0.20;;;0.20;;
15490;SDS011;7847;50.930;4.336;2022-07-29T03:39:02;0.20;;;0.20;;
15490;SDS011;7847;50.930;4.336;2022-07-29T03:41:28;0.10;;;0.10;;
15490;SDS011;7847;50.930;4.336;2022-07-29T03:43:56;0.10;;;0.10;;
15490;SDS011;7847;50.930;4.336;2022-07-29T03:46:22;0.20;;;0.20;;
15490;SDS011;7847;50.930;4.336;2022-07-29T03:48:50;0.10;;;0.10;;
15490;SDS011;7847;50.930;4.336;2022-07-29T03:51:18;0.20;;;0.20;;
15490;SDS011;7847;50.930;4.336;2022-07-29T03:53:44;0.20;;;0.20;;
15490;SDS011;7847;50.930;4.336;2022-07-29T03:56:10;0.10;;;0.10;;
15490;SDS011;7847;50.930;4.336;2022-07-29T03:58:41;0.20;;;0.20;;
15490;SDS011;7847;50.930;4.336;2022-07-29T04:01:07;0.10;;;0.10;;
15490;SDS011;7847;50.930;4.336;2022-07-29T04:03:34;0.10;;;0.10;;
15490;SDS011;7847;50.930;4.336;2022-07-29T04:06:01;0.10;;;0.10;;
15490;SDS011;7847;50.930;4.336;2022-07-29T04:08:27;0.10;;;0.10;;
15490;SDS011;7847;50.930;4.336;2022-07-29T04:10:53;0.20;;;0.20;;
15490;SDS011;7847;50.930;4.336;2022-07-29T04:13:20;0.10;;;0.10;;
15490;SDS011;7847;50.930;4.336;2022-07-29T04:15:46;0.20;;;0.20;;
15490;SDS011;7847;50.930;4.336;2022-07-29T04:18:12;0.20;;;0.20;;
15490;SDS011;7847;50.930;4.336;2022-07-29T04:20:38;0.10;;;0.10;;
15490;SDS011;7847;50.930;4.336;2022-07-29T04:23:04;0.20;;;0.20;;
15490;SDS011;7847;50.930;4.336;2022-07-29T04:25:30;0.20;;;0.20;;
15490;SDS011;7847;50.930;4.336;2022-07-29T04:27:56;0.15;;;0.15;;
15490;SDS011;7847;50.930;4.336;2022-07-29T04:30:25;0.10;;;0.10;;
15490;SDS011;7847;50.930;4.336;2022-07-29T04:32:51;0.13;;;0.13;;
15490;SDS011;7847;50.930;4.336;2022-07-29T04:35:18;0.20;;;0.20;;
15490;SDS011;7847;50.930;4.336;2022-07-29T04:37:44;0.20;;;0.20;;
15490;SDS011;7847;50.930;4.336;2022-07-29T04:40:10;0.20;;;0.20;;
15490;SDS011;7847;50.930;4.336;2022-07-29T04:42:37;0.20;;;0.20;;
15490;SDS011;7847;50.930;4.336;2022-07-29T04:45:03;0.20;;;0.20;;
15490;SDS011;7847;50.930;4.336;2022-07-29T04:47:29;0.20;;;0.20;;
15490;SDS011;7847;50.930;4.336;2022-07-29T04:49:55;0.20;;;0.20;;
15490;SDS011;7847;50.930;4.336;2022-07-29T04:52:22;0.10;;;0.10;;
15490;SDS011;7847;50.930;4.336;2022-07-29T04:54:48;0.10;;;0.10;;
15490;SDS011;7847;50.930;4.336;2022-07-29T04:57:14;0.20;;;0.20;;
15490;SDS011;7847;50.930;4.336;2022-07-29T04:59:40;0.20;;;0.20;;
15490;SDS011;7847;50.930;4.336;2022-07-29T05:02:06;0.20;;;0.20;;
15490;SDS011;7847;50.930;4.336;2022-07-29T05:04:32;0.10;;;0.10;;
15490;SDS011;7847;50.930;4.336;2022-07-29T05:06:58;0.10;;;0.10;;
15490;SDS011;7847;50.930;4.336;2022-07-29T05:09:24;0.20;;;0.20;;
15490;SDS011;7847;50.930;4.336;2022-07-29T05:11:50;0.20;;;0.20;;
15490;SDS011;7847;50.930;4.336;2022-07-29T05:14:17;0.10;;;0.10;;
15490;SDS011;7847;50.930;4.336;2022-07-29T05:16:43;0.17;;;0.17;;
15490;SDS011;7847;50.930;4.336;2022-07-29T05:19:09;0.20;;;0.20;;
15490;SDS011;7847;50.930;4.336;2022-07-29T05:21:35;0.20;;;0.20;;
15490;SDS011;7847;50.930;4.336;2022-07-29T05:24:01;0.20;;;0.20;;
15490;SDS011;7847;50.930;4.336;2022-07-29T05:26:27;0.10;;;0.10;;
15490;SDS011;7847;50.930;4.336;2022-07-29T05:28:53;0.20;;;0.20;;
15490;SDS011;7847;50.930;4.336;2022-07-29T05:31:19;0.20;;;0.20;;
15490;SDS011;7847;50.930;4.336;2022-07-29T05:33:45;0.10;;;0.10;;
15490;SDS011;7847;50.930;4.336;2022-07-29T05:36:12;0.10;;;0.10;;
15490;SDS011;7847;50.930;4.336;2022-07-29T05:38:38;0.10;;;0.10;;
15490;SDS011;7847;50.930;4.336;2022-07-29T05:41:04;0.10;;;0.10;;
15490;SDS011;7847;50.930;4.336;2022-07-29T05:43:31;0.10;;;0.10;;
15490;SDS011;7847;50.930;4.336;2022-07-29T05:45:57;0.20;;;0.20;;
15490;SDS011;7847;50.930;4.336;2022-07-29T05:48:23;0.10;;;0.10;;
15490;SDS011;7847;50.930;4.336;2022-07-29T05:50:50;0.10;;;0.10;;
15490;SDS011;7847;50.930;4.336;2022-07-29T05:53:16;0.20;;;0.20;;
15490;SDS011;7847;50.930;4.336;2022-07-29T05:55:42;0.10;;;0.10;;
15490;SDS011;7847;50.930;4.336;2022-07-29T05:58:08;0.20;;;0.20;;
15490;SDS011;7847;50.930;4.336;2022-07-29T06:00:34;0.20;;;0.20;;
15490;SDS011;7847;50.930;4.336;2022-07-29T06:03:00;0.10;;;0.10;;
15490;SDS011;7847;50.930;4.336;2022-07-29T06:05:26;0.10;;;0.10;;
15490;SDS011;7847;50.930;4.336;2022-07-29T06:07:52;0.20;;;0.20;;
15490;SDS011;7847;50.930;4.336;2022-07-29T06:10:18;0.10;;;0.10;;
15490;SDS011;7847;50.930;4.336;2022-07-29T06:12:45;0.10;;;0.10;;
15490;SDS011;7847;50.930;4.336;2022-07-29T06:15:11;0.10;;;0.10;;
15490;SDS011;7847;50.930;4.336;2022-07-29T06:17:37;0.10;;;0.10;;
15490;SDS011;7847;50.930;4.336;2022-07-29T06:20:03;0.20;;;0.20;;
15490;SDS011;7847;50.930;4.336;2022-07-29T06:22:29;0.10;;;0.10;;
15490;SDS011;7847;50.930;4.336;2022-07-29T06:24:55;0.10;;;0.10;;
15490;SDS011;7847;50.930;4.336;2022-07-29T06:27:21;0.10;;;0.10;;
15490;SDS011;7847;50.930;4.336;2022-07-29T06:29:47;0.10;;;0.10;;
15490;SDS011;7847;50.930;4.336;2022-07-29T06:32:14;0.10;;;0.10;;
15490;SDS011;7847;50.930;4.336;2022-07-29T06:34:40;0.10;;;0.10;;
15490;SDS011;7847;50.930;4.336;2022-07-29T06:37:09;0.10;;;0.10;;
15490;SDS011;7847;50.930;4.336;2022-07-29T06:39:35;0.10;;;0.10;;
15490;SDS011;7847;50.930;4.336;2022-07-29T06:42:01;0.10;;;0.10;;
15490;SDS011;7847;50.930;4.336;2022-07-29T06:44:28;0.10;;;0.10;;
15490;SDS011;7847;50.930;4.336;2022-07-29T06:46:54;0.10;;;0.10;;
15490;SDS011;7847;50.930;4.336;2022-07-29T06:49:20;0.10;;;0.10;;
15490;SDS011;7847;50.930;4.336;2022-07-29T06:51:48;0.00;;;0.00;;
15490;SDS011;7847;50.930;4.336;2022-07-29T06:54:15;0.10;;;0.10;;
15490;SDS011;7847;50.930;4.336;2022-07-29T06:56:41;0.10;;;0.10;;
15490;SDS011;7847;50.930;4.336;2022-07-29T06:59:09;0.10;;;0.10;;
15490;SDS011;7847;50.930;4.336;2022-07-29T07:01:39;0.10;;;0.10;;
15490;SDS011;7847;50.930;4.336;2022-07-29T07:04:05;0.10;;;0.10;;
15490;SDS011;7847;50.930;4.336;2022-07-29T07:06:33;0.10;;;0.10;;
15490;SDS011;7847;50.930;4.336;2022-07-29T07:08:59;0.10;;;0.10;;
15490;SDS011;7847;50.930;4.336;2022-07-29T07:11:25;0.10;;;0.10;;
15490;SDS011;7847;50.930;4.336;2022-07-29T07:13:51;0.10;;;0.10;;
15490;SDS011;7847;50.930;4.336;2022-07-29T07:16:17;0.10;;;0.10;;
15490;SDS011;7847;50.930;4.336;2022-07-29T07:18:43;0.10;;;0.10;;
15490;SDS011;7847;50.930;4.336;2022-07-29T07:21:10;0.00;;;0.00;;
15490;SDS011;7847;50.930;4.336;2022-07-29T07:23:37;0.10;;;0.10;;
15490;SDS011;7847;50.930;4.336;2022-07-29T07:26:03;0.10;;;0.10;;
15490;SDS011;7847;50.930;4.336;2022-07-29T07:28:30;0.10;;;0.10;;
15490;SDS011;7847;50.930;4.336;2022-07-29T07:30:57;0.03;;;0.03;;
15490;SDS011;7847;50.930;4.336;2022-07-29T07:33:23;0.10;;;0.10;;
15490;SDS011;7847;50.930;4.336;2022-07-29T07:35:49;0.10;;;0.10;;
15490;SDS011;7847;50.930;4.336;2022-07-29T07:38:15;0.10;;;0.10;;
15490;SDS011;7847;50.930;4.336;2022-07-29T07:40:41;0.00;;;0.00;;
15490;SDS011;7847;50.930;4.336;2022-07-29T07:43:09;0.10;;;0.10;;
15490;SDS011;7847;50.930;4.336;2022-07-29T07:45:35;0.10;;;0.10;;
15490;SDS011;7847;50.930;4.336;2022-07-29T07:48:02;0.00;;;0.00;;
15490;SDS011;7847;50.930;4.336;2022-07-29T07:50:28;0.00;;;0.00;;
15490;SDS011;7847;50.930;4.336;2022-07-29T07:52:55;0.10;;;0.10;;
15490;SDS011;7847;50.930;4.336;2022-07-29T07:55:26;0.10;;;0.10;;
15490;SDS011;7847;50.930;4.336;2022-07-29T07:57:53;0.10;;;0.10;;
15490;SDS011;7847;50.930;4.336;2022-07-29T08:00:19;0.10;;;0.10;;
15490;SDS011;7847;50.930;4.336;2022-07-29T08:02:46;0.00;;;0.00;;
15490;SDS011;7847;50.930;4.336;2022-07-29T08:05:12;0.00;;;0.00;;
15490;SDS011;7847;50.930;4.336;2022-07-29T08:07:42;0.10;;;0.10;;
15490;SDS011;7847;50.930;4.336;2022-07-29T08:10:09;0.10;;;0.10;;
15490;SDS011;7847;50.930;4.336;2022-07-29T08:12:35;0.10;;;0.10;;
15490;SDS011;7847;50.930;4.336;2022-07-29T08:15:01;0.10;;;0.10;;
15490;SDS011;7847;50.930;4.336;2022-07-29T08:17:27;0.00;;;0.00;;
15490;SDS011;7847;50.930;4.336;2022-07-29T08:19:53;0.00;;;0.00;;
15490;SDS011;7847;50.930;4.336;2022-07-29T08:22:19;0.10;;;0.10;;
15490;SDS011;7847;50.930;4.336;2022-07-29T08:24:45;0.10;;;0.10;;
15490;SDS011;7847;50.930;4.336;2022-07-29T08:27:17;0.00;;;0.00;;
15490;SDS011;7847;50.930;4.336;2022-07-29T08:29:44;0.00;;;0.00;;
15490;SDS011;7847;50.930;4.336;2022-07-29T08:32:10;0.10;;;0.10;;
15490;SDS011;7847;50.930;4.336;2022-07-29T08:34:36;0.00;;;0.00;;
15490;SDS011;7847;50.930;4.336;2022-07-29T08:37:02;0.00;;;0.00;;
15490;SDS011;7847;50.930;4.336;2022-07-29T08:39:28;0.00;;;0.00;;
15490;SDS011;7847;50.930;4.336;2022-07-29T08:41:54;0.00;;;0.00;;
15490;SDS011;7847;50.930;4.336;2022-07-29T08:44:21;0.00;;;0.00;;
15490;SDS011;7847;50.930;4.336;2022-07-29T08:46:47;0.00;;;0.00;;
15490;SDS011;7847;50.930;4.336;2022-07-29T08:49:14;0.00;;;0.00;;
15490;SDS011;7847;50.930;4.336;2022-07-29T08:51:40;0.00;;;0.00;;
15490;SDS011;7847;50.930;4.336;2022-07-29T08:54:08;0.10;;;0.10;;
15490;SDS011;7847;50.930;4.336;2022-07-29T08:56:34;0.00;;;0.00;;
15490;SDS011;7847;50.930;4.336;2022-07-29T08:59:03;0.00;;;0.00;;
15490;SDS011;7847;50.930;4.336;2022-07-29T09:01:30;0.10;;;0.10;;
15490;SDS011;7847;50.930;4.336;2022-07-29T09:03:57;0.00;;;0.00;;
15490;SDS011;7847;50.930;4.336;2022-07-29T09:06:25;0.00;;;0.00;;
15490;SDS011;7847;50.930;4.336;2022-07-29T09:08:56;0.03;;;0.03;;
15490;SDS011;7847;50.930;4.336;2022-07-29T09:11:24;0.10;;;0.10;;
15490;SDS011;7847;50.930;4.336;2022-07-29T09:13:50;0.00;;;0.00;;
15490;SDS011;7847;50.930;4.336;2022-07-29T09:16:16;0.00;;;0.00;;
15490;SDS011;7847;50.930;4.336;2022-07-29T09:18:43;0.10;;;0.10;;
15490;SDS011;7847;50.930;4.336;2022-07-29T09:21:10;0.00;;;0.00;;
15490;SDS011;7847;50.930;4.336;2022-07-29T09:26:27;0.10;;;0.10;;
15490;SDS011;7847;50.930;4.336;2022-07-29T09:28:54;0.00;;;0.00;;
15490;SDS011;7847;50.930;4.336;2022-07-29T09:31:26;0.00;;;0.00;;
15490;SDS011;7847;50.930;4.336;2022-07-29T09:33:58;0.10;;;0.10;;
15490;SDS011;7847;50.930;4.336;2022-07-29T09:36:25;0.00;;;0.00;;
15490;SDS011;7847;50.930;4.336;2022-07-29T09:38:58;0.00;;;0.00;;
15490;SDS011;7847;50.930;4.336;2022-07-29T09:41:24;0.00;;;0.00;;
15490;SDS011;7847;50.930;4.336;2022-07-29T09:43:58;0.00;;;0.00;;
15490;SDS011;7847;50.930;4.336;2022-07-29T09:46:24;0.00;;;0.00;;
15490;SDS011;7847;50.930;4.336;2022-07-29T09:49:07;0.00;;;0.00;;
15490;SDS011;7847;50.930;4.336;2022-07-29T09:51:34;0.00;;;0.00;;
15490;SDS011;7847;50.930;4.336;2022-07-29T09:54:00;0.00;;;0.00;;
15490;SDS011;7847;50.930;4.336;2022-07-29T09:56:38;0.00;;;0.00;;
15490;SDS011;7847;50.930;4.336;2022-07-29T09:59:05;0.00;;;0.00;;
15490;SDS011;7847;50.930;4.336;2022-07-29T10:01:31;0.00;;;0.00;;
15490;SDS011;7847;50.930;4.336;2022-07-29T10:03:57;0.00;;;0.00;;
15490;SDS011;7847;50.930;4.336;2022-07-29T10:06:23;0.00;;;0.00;;
15490;SDS011;7847;50.930;4.336;2022-07-29T10:08:49;0.00;;;0.00;;
15490;SDS011;7847;50.930;4.336;2022-07-29T10:11:16;0.00;;;0.00;;
15490;SDS011;7847;50.930;4.336;2022-07-29T10:13:43;0.00;;;0.00;;
15490;SDS011;7847;50.930;4.336;2022-07-29T10:16:10;0.00;;;0.00;;
15490;SDS011;7847;50.930;4.336;2022-07-29T10:18:40;0.00;;;0.00;;
15490;SDS011;7847;50.930;4.336;2022-07-29T10:21:06;0.00;;;0.00;;
15490;SDS011;7847;50.930;4.336;2022-07-29T10:23:32;0.00;;;0.00;;
15490;SDS011;7847;50.930;4.336;2022-07-29T10:25:59;0.00;;;0.00;;
15490;SDS011;7847;50.930;4.336;2022-07-29T10:28:26;0.03;;;0.03;;
15490;SDS011;7847;50.930;4.336;2022-07-29T10:30:52;0.00;;;0.00;;
15490;SDS011;7847;50.930;4.336;2022-07-29T10:33:38;0.00;;;0.00;;
15490;SDS011;7847;50.930;4.336;2022-07-29T10:36:10;0.00;;;0.00;;
15490;SDS011;7847;50.930;4.336;2022-07-29T10:38:42;0.00;;;0.00;;
15490;SDS011;7847;50.930;4.336;2022-07-29T10:43:55;0.00;;;0.00;;
15490;SDS011;7847;50.930;4.336;2022-07-29T10:46:21;0.00;;;0.00;;
15490;SDS011;7847;50.930;4.336;2022-07-29T10:54:17;0.00;;;0.00;;
15490;SDS011;7847;50.930;4.336;2022-07-29T10:56:43;0.00;;;0.00;;
15490;SDS011;7847;50.930;4.336;2022-07-29T11:01:45;0.00;;;0.00;;
15490;SDS011;7847;50.930;4.336;2022-07-29T11:04:11;0.00;;;0.00;;
15490;SDS011;7847;50.930;4.336;2022-07-29T11:09:22;0.00;;;0.00;;
15490;SDS011;7847;50.930;4.336;2022-07-29T11:11:48;0.00;;;0.00;;
15490;SDS011;7847;50.930;4.336;2022-07-29T11:14:14;0.00;;;0.00;;
15490;SDS011;7847;50.930;4.336;2022-07-29T11:17:01;0.00;;;0.00;;
15490;SDS011;7847;50.930;4.336;2022-07-29T11:19:27;0.00;;;0.00;;
15490;SDS011;7847;50.930;4.336;2022-07-29T11:21:53;0.00;;;0.00;;
15490;SDS011;7847;50.930;4.336;2022-07-29T11:27:11;0.00;;;0.00;;
15490;SDS011;7847;50.930;4.336;2022-07-29T11:29:47;0.00;;;0.00;;
15490;SDS011;7847;50.930;4.336;2022-07-29T11:32:15;0.00;;;0.00;;
15490;SDS011;7847;50.930;4.336;2022-07-29T11:34:44;0.00;;;0.00;;
15490;SDS011;7847;50.930;4.336;2022-07-29T11:39:40;0.00;;;0.00;;
15490;SDS011;7847;50.930;4.336;2022-07-29T11:47:30;0.00;;;0.00;;
15490;SDS011;7847;50.930;4.336;2022-07-29T11:49:57;0.00;;;0.00;;
15490;SDS011;7847;50.930;4.336;2022-07-29T11:52:24;0.00;;;0.00;;
15490;SDS011;7847;50.930;4.336;2022-07-29T11:54:58;0.00;;;0.00;;
15490;SDS011;7847;50.930;4.336;2022-07-29T11:57:27;0.00;;;0.00;;
15490;SDS011;7847;50.930;4.336;2022-07-29T11:59:53;0.00;;;0.00;;
15490;SDS011;7847;50.930;4.336;2022-07-29T12:02:21;0.00;;;0.00;;
15490;SDS011;7847;50.930;4.336;2022-07-29T12:04:56;0.00;;;0.00;;
15490;SDS011;7847;50.930;4.336;2022-07-29T12:07:30;0.00;;;0.00;;
15490;SDS011;7847;50.930;4.336;2022-07-29T12:09:57;0.00;;;0.00;;
15490;SDS011;7847;50.930;4.336;2022-07-29T12:12:23;0.00;;;0.00;;
15490;SDS011;7847;50.930;4.336;2022-07-29T12:14:49;0.00;;;0.00;;
15490;SDS011;7847;50.930;4.336;2022-07-29T12:17:28;0.00;;;0.00;;
15490;SDS011;7847;50.930;4.336;2022-07-29T12:19:55;0.00;;;0.00;;
15490;SDS011;7847;50.930;4.336;2022-07-29T12:22:28;0.00;;;0.00;;
15490;SDS011;7847;50.930;4.336;2022-07-29T12:24:54;0.00;;;0.00;;
15490;SDS011;7847;50.930;4.336;2022-07-29T12:27:21;0.00;;;0.00;;
15490;SDS011;7847;50.930;4.336;2022-07-29T12:29:57;0.00;;;0.00;;
15490;SDS011;7847;50.930;4.336;2022-07-29T12:32:30;0.00;;;0.00;;
15490;SDS011;7847;50.930;4.336;2022-07-29T12:34:56;0.00;;;0.00;;
15490;SDS011;7847;50.930;4.336;2022-07-29T12:37:22;0.00;;;0.00;;
15490;SDS011;7847;50.930;4.336;2022-07-29T12:39:49;0.00;;;0.00;;
15490;SDS011;7847;50.930;4.336;2022-07-29T12:42:15;0.00;;;0.00;;
15490;SDS011;7847;50.930;4.336;2022-07-29T12:44:49;0.00;;;0.00;;
15490;SDS011;7847;50.930;4.336;2022-07-29T12:47:16;0.00;;;0.00;;
15490;SDS011;7847;50.930;4.336;2022-07-29T12:49:43;0.00;;;0.00;;
15490;SDS011;7847;50.930;4.336;2022-07-29T12:52:25;0.00;;;0.00;;
15490;SDS011;7847;50.930;4.336;2022-07-29T12:54:51;0.00;;;0.00;;
15490;SDS011;7847;50.930;4.336;2022-07-29T12:57:17;0.00;;;0.00;;
15490;SDS011;7847;50.930;4.336;2022-07-29T12:59:44;0.00;;;0.00;;
15490;SDS011;7847;50.930;4.336;2022-07-29T13:02:22;0.00;;;0.00;;
15490;SDS011;7847;50.930;4.336;2022-07-29T13:04:58;0.00;;;0.00;;
15490;SDS011;7847;50.930;4.336;2022-07-29T13:07:25;0.00;;;0.00;;
15490;SDS011;7847;50.930;4.336;2022-07-29T13:09:52;0.00;;;0.00;;
15490;SDS011;7847;50.930;4.336;2022-07-29T13:12:18;0.00;;;0.00;;
15490;SDS011;7847;50.930;4.336;2022-07-29T13:14:46;0.00;;;0.00;;
15490;SDS011;7847;50.930;4.336;2022-07-29T13:17:22;0.00;;;0.00;;
15490;SDS011;7847;50.930;4.336;2022-07-29T13:22:15;0.00;;;0.00;;
15490;SDS011;7847;50.930;4.336;2022-07-29T13:24:49;0.00;;;0.00;;
15490;SDS011;7847;50.930;4.336;2022-07-29T13:27:19;0.00;;;0.00;;
15490;SDS011;7847;50.930;4.336;2022-07-29T13:29:45;0.00;;;0.00;;
15490;SDS011;7847;50.930;4.336;2022-07-29T13:32:11;0.00;;;0.00;;
15490;SDS011;7847;50.930;4.336;2022-07-29T13:34:38;0.00;;;0.00;;
15490;SDS011;7847;50.930;4.336;2022-07-29T13:37:04;0.00;;;0.00;;
15490;SDS011;7847;50.930;4.336;2022-07-29T13:39:30;0.00;;;0.00;;
15490;SDS011;7847;50.930;4.336;2022-07-29T13:41:56;0.00;;;0.00;;
15490;SDS011;7847;50.930;4.336;2022-07-29T13:44:22;0.00;;;0.00;;
15490;SDS011;7847;50.930;4.336;2022-07-29T13:46:48;0.00;;;0.00;;
15490;SDS011;7847;50.930;4.336;2022-07-29T13:49:14;0.00;;;0.00;;
15490;SDS011;7847;50.930;4.336;2022-07-29T13:51:41;0.00;;;0.00;;
15490;SDS011;7847;50.930;4.336;2022-07-29T13:54:07;0.00;;;0.00;;
15490;SDS011;7847;50.930;4.336;2022-07-29T13:56:33;0.00;;;0.00;;
15490;SDS011;7847;50.930;4.336;2022-07-29T13:58:59;0.00;;;0.00;;
15490;SDS011;7847;50.930;4.336;2022-07-29T14:01:25;0.00;;;0.00;;
15490;SDS011;7847;50.930;4.336;2022-07-29T14:03:52;0.00;;;0.00;;
15490;SDS011;7847;50.930;4.336;2022-07-29T14:06:18;0.00;;;0.00;;
15490;SDS011;7847;50.930;4.336;2022-07-29T14:08:44;0.00;;;0.00;;
15490;SDS011;7847;50.930;4.336;2022-07-29T14:11:10;0.00;;;0.00;;
15490;SDS011;7847;50.930;4.336;2022-07-29T14:13:37;0.00;;;0.00;;
15490;SDS011;7847;50.930;4.336;2022-07-29T14:16:03;0.00;;;0.00;;
15490;SDS011;7847;50.930;4.336;2022-07-29T14:18:29;0.00;;;0.00;;
15490;SDS011;7847;50.930;4.336;2022-07-29T14:20:55;0.00;;;0.00;;
15490;SDS011;7847;50.930;4.336;2022-07-29T14:23:22;0.00;;;0.00;;
15490;SDS011;7847;50.930;4.336;2022-07-29T14:25:48;0.00;;;0.00;;
15490;SDS011;7847;50.930;4.336;2022-07-29T14:28:14;0.00;;;0.00;;
15490;SDS011;7847;50.930;4.336;2022-07-29T14:30:40;0.00;;;0.00;;
15490;SDS011;7847;50.930;4.336;2022-07-29T14:33:06;0.00;;;0.00;;
15490;SDS011;7847;50.930;4.336;2022-07-29T14:35:33;0.00;;;0.00;;
15490;SDS011;7847;50.930;4.336;2022-07-29T14:37:59;0.00;;;0.00;;
15490;SDS011;7847;50.930;4.336;2022-07-29T14:40:25;0.00;;;0.00;;
15490;SDS011;7847;50.930;4.336;2022-07-29T14:42:51;0.00;;;0.00;;
15490;SDS011;7847;50.930;4.336;2022-07-29T14:45:17;0.00;;;0.00;;
15490;SDS011;7847;50.930;4.336;2022-07-29T14:47:43;0.00;;;0.00;;
15490;SDS011;7847;50.930;4.336;2022-07-29T14:50:09;0.00;;;0.00;;
15490;SDS011;7847;50.930;4.336;2022-07-29T14:52:36;0.00;;;0.00;;
15490;SDS011;7847;50.930;4.336;2022-07-29T14:55:03;0.00;;;0.00;;
15490;SDS011;7847;50.930;4.336;2022-07-29T14:57:29;0.00;;;0.00;;
15490;SDS011;7847;50.930;4.336;2022-07-29T14:59:55;0.00;;;0.00;;
15490;SDS011;7847;50.930;4.336;2022-07-29T15:02:21;0.00;;;0.00;;
15490;SDS011;7847;50.930;4.336;2022-07-29T15:04:47;0.00;;;0.00;;
15490;SDS011;7847;50.930;4.336;2022-07-29T15:07:14;0.00;;;0.00;;
15490;SDS011;7847;50.930;4.336;2022-07-29T15:09:40;0.00;;;0.00;;
15490;SDS011;7847;50.930;4.336;2022-07-29T15:12:07;0.00;;;0.00;;
15490;SDS011;7847;50.930;4.336;2022-07-29T15:14:35;0.00;;;0.00;;
15490;SDS011;7847;50.930;4.336;2022-07-29T15:17:01;0.00;;;0.00;;
15490;SDS011;7847;50.930;4.336;2022-07-29T15:19:27;0.00;;;0.00;;
15490;SDS011;7847;50.930;4.336;2022-07-29T15:21:53;0.00;;;0.00;;
15490;SDS011;7847;50.930;4.336;2022-07-29T15:24:19;0.00;;;0.00;;
15490;SDS011;7847;50.930;4.336;2022-07-29T15:26:45;0.00;;;0.00;;
15490;SDS011;7847;50.930;4.336;2022-07-29T15:29:12;0.00;;;0.00;;
15490;SDS011;7847;50.930;4.336;2022-07-29T15:31:39;0.00;;;0.00;;
15490;SDS011;7847;50.930;4.336;2022-07-29T15:34:05;0.00;;;0.00;;
15490;SDS011;7847;50.930;4.336;2022-07-29T15:36:31;0.00;;;0.00;;
15490;SDS011;7847;50.930;4.336;2022-07-29T15:38:57;0.00;;;0.00;;
15490;SDS011;7847;50.930;4.336;2022-07-29T15:41:23;0.00;;;0.00;;
15490;SDS011;7847;50.930;4.336;2022-07-29T15:43:49;0.00;;;0.00;;
15490;SDS011;7847;50.930;4.336;2022-07-29T15:46:16;0.00;;;0.00;;
15490;SDS011;7847;50.930;4.336;2022-07-29T15:49:02;0.00;;;0.00;;
15490;SDS011;7847;50.930;4.336;2022-07-29T15:51:28;0.00;;;0.00;;